sensor_id;sensor_type;location;lat;lon;timestamp;pressure;altitude;pressure_sealevel;temperature;humidity
3917;BME280;1973;50.518;7.318;2023-11-19T00:01:34;100545.13;;;11.11;100.00
3917;BME280;1973;50.518;7.318;2023-11-19T00:04:00;100544.50;;;11.09;100.00
3917;BME280;1973;50.518;7.318;2023-11-19T00:06:27;100545.81;;;11.06;100.00
3917;BME280;1973;50.518;7.318;2023-11-19T00:08:54;100541.16;;;11.07;100.00
3917;BME280;1973;50.518;7.318;2023-11-19T00:11:21;100548.09;;;11.09;100.00
3917;BME280;1973;50.518;7.318;2023-11-19T00:13:47;100520.94;;;11.13;100.00
3917;BME280;1973;50.518;7.318;2023-11-19T00:16:14;100535.56;;;11.13;100.00
3917;BME280;1973;50.518;7.318;2023-11-19T00:18:43;100535.34;;;11.15;100.00
3917;BME280;1973;50.518;7.318;2023-11-19T00:21:09;100514.75;;;11.17;100.00
3917;BME280;1973;50.518;7.318;2023-11-19T00:23:37;100516.47;;;11.18;100.00
3917;BME280;1973;50.518;7.318;2023-11-19T00:26:04;100507.56;;;11.16;100.00
3917;BME280;1973;50.518;7.318;2023-11-19T00:28:33;100491.88;;;11.17;100.00
3917;BME280;1973;50.518;7.318;2023-11-19T00:31:00;100483.84;;;11.15;100.00
3917;BME280;1973;50.518;7.318;2023-11-19T00:33:27;100472.84;;;11.15;100.00
3917;BME280;1973;50.518;7.318;2023-11-19T00:35:54;100452.06;;;11.13;100.00
3917;BME280;1973;50.518;7.318;2023-11-19T00:38:21;100471.16;;;11.14;100.00
3917;BME280;1973;50.518;7.318;2023-11-19T00:40:48;100477.97;;;11.12;100.00
3917;BME280;1973;50.518;7.318;2023-11-19T00:43:14;100464.41;;;11.10;100.00
3917;BME280;1973;50.518;7.318;2023-11-19T00:45:41;100498.97;;;11.06;100.00
3917;BME280;1973;50.518;7.318;2023-11-19T00:48:07;100495.38;;;11.06;100.00
3917;BME280;1973;50.518;7.318;2023-11-19T00:50:34;100494.53;;;11.05;100.00
3917;BME280;1973;50.518;7.318;2023-11-19T00:53:03;100464.22;;;11.05;100.00
3917;BME280;1973;50.518;7.318;2023-11-19T00:55:30;100469.97;;;11.04;100.00
3917;BME280;1973;50.518;7.318;2023-11-19T00:57:57;100463.63;;;11.03;100.00
3917;BME280;1973;50.518;7.318;2023-11-19T01:00:23;100467.81;;;11.06;100.00
3917;BME280;1973;50.518;7.318;2023-11-19T01:02:53;100462.94;;;11.08;100.00
3917;BME280;1973;50.518;7.318;2023-11-19T01:05:20;100464.41;;;11.10;100.00
3917;BME280;1973;50.518;7.318;2023-11-19T01:07:50;100470.50;;;11.12;100.00
3917;BME280;1973;50.518;7.318;2023-11-19T01:10:18;100479.41;;;11.14;100.00
3917;BME280;1973;50.518;7.318;2023-11-19T01:12:46;100464.56;;;11.15;100.00
3917;BME280;1973;50.518;7.318;2023-11-19T01:15:12;100474.50;;;11.16;100.00
3917;BME280;1973;50.518;7.318;2023-11-19T01:17:39;100446.50;;;11.19;100.00
3917;BME280;1973;50.518;7.318;2023-11-19T01:20:18;100441.00;;;11.19;100.00
3917;BME280;1973;50.518;7.318;2023-11-19T01:22:46;100429.53;;;11.22;100.00
3917;BME280;1973;50.518;7.318;2023-11-19T01:25:15;100437.91;;;11.28;100.00
3917;BME280;1973;50.518;7.318;2023-11-19T01:27:42;100439.16;;;11.32;100.00
3917;BME280;1973;50.518;7.318;2023-11-19T01:30:09;100448.66;;;11.36;100.00
3917;BME280;1973;50.518;7.318;2023-11-19T01:32:42;100441.59;;;11.40;100.00
3917;BME280;1973;50.518;7.318;2023-11-19T01:35:09;100451.09;;;11.44;100.00
3917;BME280;1973;50.518;7.318;2023-11-19T01:37:35;100447.03;;;11.46;100.00
3917;BME280;1973;50.518;7.318;2023-11-19T01:40:03;100434.09;;;11.47;100.00
3917;BME280;1973;50.518;7.318;2023-11-19T01:42:38;100437.47;;;11.49;100.00
3917;BME280;1973;50.518;7.318;2023-11-19T01:45:05;100432.34;;;11.52;100.00
3917;BME280;1973;50.518;7.318;2023-11-19T01:47:34;100439.91;;;11.57;100.00
3917;BME280;1973;50.518;7.318;2023-11-19T01:50:02;100442.81;;;11.62;100.00
3917;BME280;1973;50.518;7.318;2023-11-19T01:52:34;100436.38;;;11.68;100.00
3917;BME280;1973;50.518;7.318;2023-11-19T01:55:03;100422.19;;;11.71;100.00
3917;BME280;1973;50.518;7.318;2023-11-19T01:57:30;100425.53;;;11.73;100.00
3917;BME280;1973;50.518;7.318;2023-11-19T01:59:57;100418.94;;;11.74;100.00
3917;BME280;1973;50.518;7.318;2023-11-19T02:02:24;100417.84;;;11.75;100.00
3917;BME280;1973;50.518;7.318;2023-11-19T02:04:53;100430.56;;;11.76;100.00
3917;BME280;1973;50.518;7.318;2023-11-19T02:07:19;100433.97;;;11.78;100.00
3917;BME280;1973;50.518;7.318;2023-11-19T02:09:47;100426.75;;;11.77;100.00
3917;BME280;1973;50.518;7.318;2023-11-19T02:12:13;100418.25;;;11.79;100.00
3917;BME280;1973;50.518;7.318;2023-11-19T02:14:40;100419.53;;;11.76;100.00
3917;BME280;1973;50.518;7.318;2023-11-19T02:17:06;100421.72;;;11.74;100.00
3917;BME280;1973;50.518;7.318;2023-11-19T02:19:33;100428.88;;;11.75;100.00
3917;BME280;1973;50.518;7.318;2023-11-19T02:22:00;100415.09;;;11.75;100.00
3917;BME280;1973;50.518;7.318;2023-11-19T02:24:29;100426.13;;;11.75;100.00
3917;BME280;1973;50.518;7.318;2023-11-19T02:27:10;100422.09;;;11.78;100.00
3917;BME280;1973;50.518;7.318;2023-11-19T02:29:42;100414.66;;;11.78;100.00
3917;BME280;1973;50.518;7.318;2023-11-19T02:32:09;100412.28;;;11.82;100.00
3917;BME280;1973;50.518;7.318;2023-11-19T02:34:36;100411.16;;;11.83;100.00
3917;BME280;1973;50.518;7.318;2023-11-19T02:37:02;100405.44;;;11.84;100.00
3917;BME280;1973;50.518;7.318;2023-11-19T02:39:30;100394.41;;;11.84;100.00
3917;BME280;1973;50.518;7.318;2023-11-19T02:41:56;100401.59;;;11.85;100.00
3917;BME280;1973;50.518;7.318;2023-11-19T02:44:23;100396.31;;;11.84;100.00
3917;BME280;1973;50.518;7.318;2023-11-19T02:46:50;100402.69;;;11.84;100.00
3917;BME280;1973;50.518;7.318;2023-11-19T02:49:16;100408.19;;;11.84;100.00
3917;BME280;1973;50.518;7.318;2023-11-19T02:51:43;100410.34;;;11.82;100.00
3917;BME280;1973;50.518;7.318;2023-11-19T02:54:09;100415.25;;;11.80;100.00
3917;BME280;1973;50.518;7.318;2023-11-19T02:56:36;100411.91;;;11.78;100.00
3917;BME280;1973;50.518;7.318;2023-11-19T02:59:05;100398.31;;;11.77;100.00
3917;BME280;1973;50.518;7.318;2023-11-19T03:01:41;100392.81;;;11.77;100.00
3917;BME280;1973;50.518;7.318;2023-11-19T03:04:10;100398.31;;;11.77;100.00
3917;BME280;1973;50.518;7.318;2023-11-19T03:06:38;100382.63;;;11.77;100.00
3917;BME280;1973;50.518;7.318;2023-11-19T03:09:05;100391.97;;;11.76;100.00
3917;BME280;1973;50.518;7.318;2023-11-19T03:11:37;100379.25;;;11.75;100.00
3917;BME280;1973;50.518;7.318;2023-11-19T03:14:03;100377.34;;;11.76;100.00
3917;BME280;1973;50.518;7.318;2023-11-19T03:16:31;100373.13;;;11.73;100.00
3917;BME280;1973;50.518;7.318;2023-11-19T03:18:57;100371.44;;;11.72;100.00
3917;BME280;1973;50.518;7.318;2023-11-19T03:21:30;100368.91;;;11.70;100.00
3917;BME280;1973;50.518;7.318;2023-11-19T03:23:58;100370.81;;;11.70;100.00
3917;BME280;1973;50.518;7.318;2023-11-19T03:26:27;100369.13;;;11.69;100.00
3917;BME280;1973;50.518;7.318;2023-11-19T03:28:53;100357.25;;;11.68;100.00
3917;BME280;1973;50.518;7.318;2023-11-19T03:31:20;100358.56;;;11.66;100.00
3917;BME280;1973;50.518;7.318;2023-11-19T03:33:47;100369.59;;;11.66;100.00
3917;BME280;1973;50.518;7.318;2023-11-19T03:36:13;100374.53;;;11.64;100.00
3917;BME280;1973;50.518;7.318;2023-11-19T03:38:40;100370.06;;;11.63;100.00
3917;BME280;1973;50.518;7.318;2023-11-19T03:41:12;100371.75;;;11.64;100.00
3917;BME280;1973;50.518;7.318;2023-11-19T03:43:39;100364.56;;;11.63;100.00
3917;BME280;1973;50.518;7.318;2023-11-19T03:46:19;100373.91;;;11.62;100.00
3917;BME280;1973;50.518;7.318;2023-11-19T03:48:47;100371.34;;;11.60;100.00
3917;BME280;1973;50.518;7.318;2023-11-19T03:51:14;100361.16;;;11.61;100.00
3917;BME280;1973;50.518;7.318;2023-11-19T03:53:45;100365.03;;;11.60;100.00
3917;BME280;1973;50.518;7.318;2023-11-19T03:56:12;100373.53;;;11.58;100.00
3917;BME280;1973;50.518;7.318;2023-11-19T03:58:39;100367.16;;;11.58;100.00
3917;BME280;1973;50.518;7.318;2023-11-19T04:01:05;100374.38;;;11.59;100.00
3917;BME280;1973;50.518;7.318;2023-11-19T04:03:32;100371.59;;;11.59;100.00
3917;BME280;1973;50.518;7.318;2023-11-19T04:05:59;100364.41;;;11.58;100.00
3917;BME280;1973;50.518;7.318;2023-11-19T04:08:26;100367.16;;;11.58;100.00
3917;BME280;1973;50.518;7.318;2023-11-19T04:10:52;100370.53;;;11.60;100.00
3917;BME280;1973;50.518;7.318;2023-11-19T04:13:19;100373.53;;;11.58;100.00
3917;BME280;1973;50.518;7.318;2023-11-19T04:15:46;100379.88;;;11.59;100.00
3917;BME280;1973;50.518;7.318;2023-11-19T04:18:12;100375.22;;;11.59;100.00
3917;BME280;1973;50.518;7.318;2023-11-19T04:20:39;100374.38;;;11.59;100.00
3917;BME280;1973;50.518;7.318;2023-11-19T04:23:05;100369.31;;;11.56;100.00
3917;BME280;1973;50.518;7.318;2023-11-19T04:25:32;100365.94;;;11.54;100.00
3917;BME280;1973;50.518;7.318;2023-11-19T04:27:59;100366.63;;;11.49;100.00
3917;BME280;1973;50.518;7.318;2023-11-19T04:30:26;100369.00;;;11.46;100.00
3917;BME280;1973;50.518;7.318;2023-11-19T04:32:52;100368.88;;;11.41;100.00
3917;BME280;1973;50.518;7.318;2023-11-19T04:35:19;100366.81;;;11.36;100.00
3917;BME280;1973;50.518;7.318;2023-11-19T04:37:45;100377.69;;;11.31;100.00
3917;BME280;1973;50.518;7.318;2023-11-19T04:40:14;100384.97;;;11.26;100.00
3917;BME280;1973;50.518;7.318;2023-11-19T04:42:40;100372.72;;;11.21;100.00
3917;BME280;1973;50.518;7.318;2023-11-19T04:45:07;100369.81;;;11.16;100.00
3917;BME280;1973;50.518;7.318;2023-11-19T04:47:36;100378.53;;;11.13;100.00
3917;BME280;1973;50.518;7.318;2023-11-19T04:50:03;100380.06;;;11.09;100.00
3917;BME280;1973;50.518;7.318;2023-11-19T04:52:30;100385.06;;;11.01;100.00
3917;BME280;1973;50.518;7.318;2023-11-19T04:54:57;100370.91;;;10.97;100.00
3917;BME280;1973;50.518;7.318;2023-11-19T04:57:23;100376.84;;;10.94;100.00
3917;BME280;1973;50.518;7.318;2023-11-19T04:59:50;100383.44;;;10.93;100.00
3917;BME280;1973;50.518;7.318;2023-11-19T05:02:16;100377.28;;;10.91;100.00
3917;BME280;1973;50.518;7.318;2023-11-19T05:04:43;100380.91;;;10.92;100.00
3917;BME280;1973;50.518;7.318;2023-11-19T05:07:13;100370.09;;;10.90;100.00
3917;BME280;1973;50.518;7.318;2023-11-19T05:09:40;100373.94;;;10.89;100.00
3917;BME280;1973;50.518;7.318;2023-11-19T05:12:07;100376.53;;;10.84;100.00
3917;BME280;1973;50.518;7.318;2023-11-19T05:14:38;100380.59;;;10.82;100.00
3917;BME280;1973;50.518;7.318;2023-11-19T05:17:04;100380.19;;;10.78;100.00
3917;BME280;1973;50.518;7.318;2023-11-19T05:19:31;100374.53;;;10.73;100.00
3917;BME280;1973;50.518;7.318;2023-11-19T05:21:58;100376.03;;;10.69;100.00
3917;BME280;1973;50.518;7.318;2023-11-19T05:24:24;100385.22;;;10.63;100.00
3917;BME280;1973;50.518;7.318;2023-11-19T05:26:51;100391.59;;;10.57;100.00
3917;BME280;1973;50.518;7.318;2023-11-19T05:29:18;100387.66;;;10.53;100.00
3917;BME280;1973;50.518;7.318;2023-11-19T05:31:44;100397.19;;;10.50;100.00
3917;BME280;1973;50.518;7.318;2023-11-19T05:34:11;100400.19;;;10.49;100.00
3917;BME280;1973;50.518;7.318;2023-11-19T05:36:38;100391.06;;;10.48;100.00
3917;BME280;1973;50.518;7.318;2023-11-19T05:39:05;100401.03;;;10.49;100.00
3917;BME280;1973;50.518;7.318;2023-11-19T05:41:32;100404.38;;;10.51;100.00
3917;BME280;1973;50.518;7.318;2023-11-19T05:43:59;100414.09;;;10.54;100.00
3917;BME280;1973;50.518;7.318;2023-11-19T05:46:25;100402.88;;;10.55;100.00
3917;BME280;1973;50.518;7.318;2023-11-19T05:48:53;100413.63;;;10.57;100.00
3917;BME280;1973;50.518;7.318;2023-11-19T05:51:20;100405.38;;;10.57;100.00
3917;BME280;1973;50.518;7.318;2023-11-19T05:53:47;100420.22;;;10.56;100.00
3917;BME280;1973;50.518;7.318;2023-11-19T05:56:13;100415.78;;;10.55;100.00
3917;BME280;1973;50.518;7.318;2023-11-19T05:58:42;100430.59;;;10.54;100.00
3917;BME280;1973;50.518;7.318;2023-11-19T06:01:11;100412.41;;;10.53;100.00
3917;BME280;1973;50.518;7.318;2023-11-19T06:03:37;100411.78;;;10.51;100.00
3917;BME280;1973;50.518;7.318;2023-11-19T06:06:05;100420.50;;;10.48;100.00
3917;BME280;1973;50.518;7.318;2023-11-19T06:08:32;100425.59;;;10.44;100.00
3917;BME280;1973;50.518;7.318;2023-11-19T06:10:58;100418.41;;;10.43;100.00
3917;BME280;1973;50.518;7.318;2023-11-19T06:13:27;100414.22;;;10.41;100.00
3917;BME280;1973;50.518;7.318;2023-11-19T06:15:53;100412.50;;;10.40;100.00
3917;BME280;1973;50.518;7.318;2023-11-19T06:18:20;100424.56;;;10.39;100.00
3917;BME280;1973;50.518;7.318;2023-11-19T06:20:47;100426.72;;;10.37;100.00
3917;BME280;1973;50.518;7.318;2023-11-19T06:23:14;100417.88;;;10.35;100.00
3917;BME280;1973;50.518;7.318;2023-11-19T06:25:40;100425.69;;;10.31;100.00
3917;BME280;1973;50.518;7.318;2023-11-19T06:28:07;100434.41;;;10.28;100.00
3917;BME280;1973;50.518;7.318;2023-11-19T06:30:33;100436.53;;;10.26;100.00
3917;BME280;1973;50.518;7.318;2023-11-19T06:33:00;100443.56;;;10.22;100.00
3917;BME280;1973;50.518;7.318;2023-11-19T06:35:27;100437.00;;;10.16;100.00
3917;BME280;1973;50.518;7.318;2023-11-19T06:37:55;100438.72;;;10.11;100.00
3917;BME280;1973;50.518;7.318;2023-11-19T06:40:22;100443.19;;;10.05;100.00
3917;BME280;1973;50.518;7.318;2023-11-19T06:42:49;100440.88;;;10.02;100.00
3917;BME280;1973;50.518;7.318;2023-11-19T06:45:15;100438.59;;;9.99;100.00
3917;BME280;1973;50.518;7.318;2023-11-19T06:47:42;100448.97;;;9.97;100.00
3917;BME280;1973;50.518;7.318;2023-11-19T06:50:08;100440.53;;;9.92;100.00
3917;BME280;1973;50.518;7.318;2023-11-19T06:52:35;100442.03;;;9.88;100.00
3917;BME280;1973;50.518;7.318;2023-11-19T06:55:04;100437.19;;;9.84;100.00
3917;BME280;1973;50.518;7.318;2023-11-19T06:57:34;100442.53;;;9.78;100.00
3917;BME280;1973;50.518;7.318;2023-11-19T07:00:01;100443.78;;;9.76;100.00
3917;BME280;1973;50.518;7.318;2023-11-19T07:02:28;100449.72;;;9.73;100.00
3917;BME280;1973;50.518;7.318;2023-11-19T07:04:55;100458.41;;;9.70;100.00
3917;BME280;1973;50.518;7.318;2023-11-19T07:07:21;100451.22;;;9.69;100.00
3917;BME280;1973;50.518;7.318;2023-11-19T07:09:48;100458.63;;;9.68;100.00
3917;BME280;1973;50.518;7.318;2023-11-19T07:12:14;100454.59;;;9.71;100.00
3917;BME280;1973;50.518;7.318;2023-11-19T07:14:42;100461.56;;;9.73;100.00
3917;BME280;1973;50.518;7.318;2023-11-19T07:17:08;100463.66;;;9.78;100.00
3917;BME280;1973;50.518;7.318;2023-11-19T07:19:36;100466.81;;;9.82;100.00
3917;BME280;1973;50.518;7.318;2023-11-19T07:22:04;100476.94;;;9.88;100.00
3917;BME280;1973;50.518;7.318;2023-11-19T07:24:32;100475.44;;;9.92;100.00
3917;BME280;1973;50.518;7.318;2023-11-19T07:26:59;100480.28;;;9.96;100.00
3917;BME280;1973;50.518;7.318;2023-11-19T07:29:25;100482.59;;;9.99;100.00
3917;BME280;1973;50.518;7.318;2023-11-19T07:31:55;100491.03;;;10.04;100.00
3917;BME280;1973;50.518;7.318;2023-11-19T07:34:24;100498.78;;;10.14;100.00
3917;BME280;1973;50.518;7.318;2023-11-19T07:36:51;100493.91;;;10.22;100.00
3917;BME280;1973;50.518;7.318;2023-11-19T07:39:19;100508.47;;;10.30;100.00
3917;BME280;1973;50.518;7.318;2023-11-19T07:41:47;100510.31;;;10.36;100.00
3917;BME280;1973;50.518;7.318;2023-11-19T07:44:13;100507.78;;;10.41;100.00
3917;BME280;1973;50.518;7.318;2023-11-19T07:46:40;100512.81;;;10.44;100.00
3917;BME280;1973;50.518;7.318;2023-11-19T07:49:08;100513.22;;;10.47;100.00
3917;BME280;1973;50.518;7.318;2023-11-19T07:51:36;100497.75;;;10.53;100.00
3917;BME280;1973;50.518;7.318;2023-11-19T07:54:03;100490.88;;;10.62;100.00
3917;BME280;1973;50.518;7.318;2023-11-19T07:56:32;100495.06;;;10.71;100.00
3917;BME280;1973;50.518;7.318;2023-11-19T07:58:58;100491.28;;;10.90;100.00
3917;BME280;1973;50.518;7.318;2023-11-19T08:01:25;100487.66;;;11.14;100.00
3917;BME280;1973;50.518;7.318;2023-11-19T08:03:51;100490.91;;;11.30;100.00
3917;BME280;1973;50.518;7.318;2023-11-19T08:06:21;100477.91;;;11.55;100.00
3917;BME280;1973;50.518;7.318;2023-11-19T08:08:47;100468.66;;;11.67;100.00
3917;BME280;1973;50.518;7.318;2023-11-19T08:11:14;100471.44;;;11.97;100.00
3917;BME280;1973;50.518;7.318;2023-11-19T08:13:41;100470.81;;;12.13;100.00
3917;BME280;1973;50.518;7.318;2023-11-19T08:16:08;100458.66;;;12.33;100.00
3917;BME280;1973;50.518;7.318;2023-11-19T08:18:36;100455.59;;;12.52;100.00
3917;BME280;1973;50.518;7.318;2023-11-19T08:21:02;100451.75;;;12.65;100.00
3917;BME280;1973;50.518;7.318;2023-11-19T08:23:32;100459.22;;;12.76;100.00
3917;BME280;1973;50.518;7.318;2023-11-19T08:25:58;100461.13;;;12.87;100.00
3917;BME280;1973;50.518;7.318;2023-11-19T08:28:25;100477.16;;;12.97;100.00
3917;BME280;1973;50.518;7.318;2023-11-19T08:30:51;100460.81;;;13.07;100.00
3917;BME280;1973;50.518;7.318;2023-11-19T08:33:18;100468.78;;;13.15;100.00
3917;BME280;1973;50.518;7.318;2023-11-19T08:35:44;100464.81;;;13.23;100.00
3917;BME280;1973;50.518;7.318;2023-11-19T08:38:11;100459.72;;;13.31;100.00
3917;BME280;1973;50.518;7.318;2023-11-19T08:40:38;100464.78;;;13.34;100.00
3917;BME280;1973;50.518;7.318;2023-11-19T08:43:05;100459.97;;;13.41;100.00
3917;BME280;1973;50.518;7.318;2023-11-19T08:45:32;100458.72;;;13.49;100.00
3917;BME280;1973;50.518;7.318;2023-11-19T08:47:59;100459.47;;;13.56;100.00
3917;BME280;1973;50.518;7.318;2023-11-19T08:50:26;100460.41;;;13.61;100.00
3917;BME280;1973;50.518;7.318;2023-11-19T08:52:52;100451.88;;;13.63;100.00
3917;BME280;1973;50.518;7.318;2023-11-19T08:55:19;100457.00;;;13.71;100.00
3917;BME280;1973;50.518;7.318;2023-11-19T08:57:45;100462.66;;;13.76;100.00
3917;BME280;1973;50.518;7.318;2023-11-19T09:00:12;100463.84;;;13.80;100.00
3917;BME280;1973;50.518;7.318;2023-11-19T09:02:40;100473.34;;;13.84;100.00
3917;BME280;1973;50.518;7.318;2023-11-19T09:05:07;100480.06;;;13.88;100.00
3917;BME280;1973;50.518;7.318;2023-11-19T09:07:34;100488.00;;;13.96;100.00
3917;BME280;1973;50.518;7.318;2023-11-19T09:10:01;100479.78;;;14.01;100.00
3917;BME280;1973;50.518;7.318;2023-11-19T09:12:28;100481.47;;;14.02;100.00
3917;BME280;1973;50.518;7.318;2023-11-19T09:14:54;100486.63;;;14.10;100.00
3917;BME280;1973;50.518;7.318;2023-11-19T09:17:21;100488.66;;;14.15;100.00
3917;BME280;1973;50.518;7.318;2023-11-19T09:19:47;100495.22;;;14.26;100.00
3917;BME280;1973;50.518;7.318;2023-11-19T09:22:14;100491.47;;;14.32;100.00
3917;BME280;1973;50.518;7.318;2023-11-19T09:24:40;100485.91;;;14.43;100.00
3917;BME280;1973;50.518;7.318;2023-11-19T09:27:07;100496.31;;;14.53;100.00
3917;BME280;1973;50.518;7.318;2023-11-19T09:29:34;100497.59;;;14.62;100.00
3917;BME280;1973;50.518;7.318;2023-11-19T09:32:00;100498.63;;;14.73;100.00
3917;BME280;1973;50.518;7.318;2023-11-19T09:34:30;100510.91;;;14.77;100.00
3917;BME280;1973;50.518;7.318;2023-11-19T09:36:58;100507.22;;;14.88;100.00
3917;BME280;1973;50.518;7.318;2023-11-19T09:39:24;100497.69;;;15.00;100.00
3917;BME280;1973;50.518;7.318;2023-11-19T09:41:52;100504.34;;;15.16;100.00
3917;BME280;1973;50.518;7.318;2023-11-19T09:44:19;100512.91;;;15.31;100.00
3917;BME280;1973;50.518;7.318;2023-11-19T09:46:46;100503.75;;;15.47;100.00
3917;BME280;1973;50.518;7.318;2023-11-19T09:49:14;100495.06;;;15.61;100.00
3917;BME280;1973;50.518;7.318;2023-11-19T09:51:42;100499.03;;;15.86;100.00
3917;BME280;1973;50.518;7.318;2023-11-19T09:54:08;100484.25;;;16.02;100.00
3917;BME280;1973;50.518;7.318;2023-11-19T09:56:36;100481.19;;;16.26;100.00
3917;BME280;1973;50.518;7.318;2023-11-19T09:59:05;100477.94;;;16.34;100.00
3917;BME280;1973;50.518;7.318;2023-11-19T10:01:31;100471.50;;;16.28;100.00
3917;BME280;1973;50.518;7.318;2023-11-19T10:03:59;100490.13;;;16.54;100.00
3917;BME280;1973;50.518;7.318;2023-11-19T10:06:27;100478.81;;;16.61;100.00
3917;BME280;1973;50.518;7.318;2023-11-19T10:08:53;100476.47;;;16.80;100.00
3917;BME280;1973;50.518;7.318;2023-11-19T10:11:21;100470.78;;;16.96;100.00
3917;BME280;1973;50.518;7.318;2023-11-19T10:13:48;100461.94;;;17.04;98.61
3917;BME280;1973;50.518;7.318;2023-11-19T10:16:15;100469.03;;;17.22;96.08
3917;BME280;1973;50.518;7.318;2023-11-19T10:18:49;100462.16;;;17.35;85.60
3917;BME280;1973;50.518;7.318;2023-11-19T10:21:18;100459.88;;;17.27;84.38
3917;BME280;1973;50.518;7.318;2023-11-19T10:26:16;100455.00;;;17.44;87.63
3917;BME280;1973;50.518;7.318;2023-11-19T10:28:43;100461.16;;;17.56;87.83
3917;BME280;1973;50.518;7.318;2023-11-19T10:31:13;100461.53;;;17.65;86.45
3917;BME280;1973;50.518;7.318;2023-11-19T10:33:40;100475.75;;;17.68;85.42
3917;BME280;1973;50.518;7.318;2023-11-19T10:36:07;100461.78;;;17.58;83.90
3917;BME280;1973;50.518;7.318;2023-11-19T10:38:34;100461.00;;;17.68;84.39
3917;BME280;1973;50.518;7.318;2023-11-19T10:41:01;100458.09;;;17.52;83.62
3917;BME280;1973;50.518;7.318;2023-11-19T10:43:27;100458.28;;;17.36;84.13
3917;BME280;1973;50.518;7.318;2023-11-19T10:46:09;100449.34;;;17.29;76.93
3917;BME280;1973;50.518;7.318;2023-11-19T10:48:36;100447.19;;;17.46;82.62
3917;BME280;1973;50.518;7.318;2023-11-19T10:51:05;100460.19;;;17.30;74.54
3917;BME280;1973;50.518;7.318;2023-11-19T10:53:37;100457.91;;;17.22;76.37
3917;BME280;1973;50.518;7.318;2023-11-19T10:56:08;100445.53;;;17.45;77.75
3917;BME280;1973;50.518;7.318;2023-11-19T10:58:38;100441.78;;;17.71;78.64
3917;BME280;1973;50.518;7.318;2023-11-19T11:01:33;100438.16;;;17.71;66.08
3917;BME280;1973;50.518;7.318;2023-11-19T11:04:02;100431.50;;;17.72;72.79
3917;BME280;1973;50.518;7.318;2023-11-19T11:06:29;100440.94;;;17.71;71.22
3917;BME280;1973;50.518;7.318;2023-11-19T11:08:56;100431.31;;;17.93;70.32
3917;BME280;1973;50.518;7.318;2023-11-19T11:11:24;100436.09;;;18.03;68.47
3917;BME280;1973;50.518;7.318;2023-11-19T11:13:53;100440.28;;;18.06;68.51
3917;BME280;1973;50.518;7.318;2023-11-19T11:16:22;100428.06;;;18.27;67.31
3917;BME280;1973;50.518;7.318;2023-11-19T11:18:49;100432.28;;;18.39;65.00
3917;BME280;1973;50.518;7.318;2023-11-19T11:21:20;100426.78;;;18.70;62.28
3917;BME280;1973;50.518;7.318;2023-11-19T11:24:07;100422.03;;;18.65;58.24
3917;BME280;1973;50.518;7.318;2023-11-19T11:32:34;100435.91;;;18.40;56.98
3917;BME280;1973;50.518;7.318;2023-11-19T11:37:47;100425.59;;;18.45;59.43
3917;BME280;1973;50.518;7.318;2023-11-19T11:40:16;100423.31;;;18.17;60.01
3917;BME280;1973;50.518;7.318;2023-11-19T11:42:44;100416.03;;;18.11;60.67
3917;BME280;1973;50.518;7.318;2023-11-19T11:45:13;100421.38;;;18.38;59.77
3917;BME280;1973;50.518;7.318;2023-11-19T11:57:57;100421.16;;;17.62;60.73
3917;BME280;1973;50.518;7.318;2023-11-19T12:00:28;100422.59;;;17.28;61.61
3917;BME280;1973;50.518;7.318;2023-11-19T12:02:57;100402.97;;;17.02;64.66
3917;BME280;1973;50.518;7.318;2023-11-19T12:05:23;100414.13;;;16.71;66.51
3917;BME280;1973;50.518;7.318;2023-11-19T12:07:59;100404.44;;;16.73;65.28
3917;BME280;1973;50.518;7.318;2023-11-19T12:10:31;100407.94;;;16.64;69.14
3917;BME280;1973;50.518;7.318;2023-11-19T12:12:59;100395.78;;;16.43;69.80
3917;BME280;1973;50.518;7.318;2023-11-19T12:15:26;100396.72;;;16.27;72.06
3917;BME280;1973;50.518;7.318;2023-11-19T12:17:54;100398.56;;;16.16;72.96
3917;BME280;1973;50.518;7.318;2023-11-19T12:20:23;100398.03;;;16.19;73.37
3917;BME280;1973;50.518;7.318;2023-11-19T12:22:53;100402.72;;;16.14;74.73
3917;BME280;1973;50.518;7.318;2023-11-19T12:25:20;100397.09;;;16.08;75.70
3917;BME280;1973;50.518;7.318;2023-11-19T12:27:49;100387.59;;;15.99;80.12
3917;BME280;1973;50.518;7.318;2023-11-19T12:30:25;100393.41;;;16.30;84.25
3917;BME280;1973;50.518;7.318;2023-11-19T12:32:53;100379.53;;;16.93;77.95
3917;BME280;1973;50.518;7.318;2023-11-19T12:35:22;100368.00;;;17.17;75.24
3917;BME280;1973;50.518;7.318;2023-11-19T12:37:50;100369.94;;;17.16;74.28
3917;BME280;1973;50.518;7.318;2023-11-19T12:40:24;100364.38;;;17.16;73.86
3917;BME280;1973;50.518;7.318;2023-11-19T12:42:52;100354.34;;;17.10;75.19
3917;BME280;1973;50.518;7.318;2023-11-19T12:45:23;100358.88;;;17.26;76.01
3917;BME280;1973;50.518;7.318;2023-11-19T12:48:04;100356.38;;;17.25;75.04
3917;BME280;1973;50.518;7.318;2023-11-19T12:50:54;100352.69;;;17.14;75.27
3917;BME280;1973;50.518;7.318;2023-11-19T12:53:21;100348.38;;;16.91;78.19
3917;BME280;1973;50.518;7.318;2023-11-19T12:55:48;100332.75;;;16.85;78.27
3917;BME280;1973;50.518;7.318;2023-11-19T12:58:31;100317.41;;;16.78;79.69
3917;BME280;1973;50.518;7.318;2023-11-19T13:00:59;100332.03;;;16.63;82.40
3917;BME280;1973;50.518;7.318;2023-11-19T13:03:34;100322.84;;;16.58;83.47
3917;BME280;1973;50.518;7.318;2023-11-19T13:06:02;100327.47;;;16.52;83.28
3917;BME280;1973;50.518;7.318;2023-11-19T13:08:36;100330.19;;;16.74;80.27
3917;BME280;1973;50.518;7.318;2023-11-19T13:11:04;100329.41;;;16.83;80.31
3917;BME280;1973;50.518;7.318;2023-11-19T13:13:33;100328.75;;;16.66;79.16
3917;BME280;1973;50.518;7.318;2023-11-19T13:16:16;100321.47;;;16.60;78.65
3917;BME280;1973;50.518;7.318;2023-11-19T13:18:46;100334.88;;;16.68;77.98
3917;BME280;1973;50.518;7.318;2023-11-19T13:21:13;100328.22;;;16.74;77.43
3917;BME280;1973;50.518;7.318;2023-11-19T13:23:39;100339.81;;;16.61;77.89
3917;BME280;1973;50.518;7.318;2023-11-19T13:26:06;100347.78;;;16.52;77.74
3917;BME280;1973;50.518;7.318;2023-11-19T13:28:33;100334.72;;;16.53;76.15